Terminal Aerodrome Forecast
Issued by NWS

Home | Current Version | Previous Version | Graphics & Text | Print | Product List | Glossary On
Versions: 1 2 3 4 5 6 7 8 9 10 11 12 13 14 15 16
628
FTUS43 KLSX 210520
TAFSUS
TAF
KSUS 210520Z 2106/2206 18004KT P6SM FEW050
      TEMPO 2109/2112 4SM BR=

USA.gov is the U.S. government's official web portal to all federal, state and local government web resources and services.